createdAt,value
2018-06-03T00:00:05.273Z,12.80
2018-06-03T00:02:34.127Z,12.90
2018-06-03T00:05:02.205Z,12.90
2018-06-03T00:07:31.120Z,12.90
2018-06-03T00:09:59.207Z,13.10
2018-06-03T00:12:28.085Z,13.00
2018-06-03T00:14:56.535Z,13.00
2018-06-03T00:17:24.619Z,12.90
2018-06-03T00:19:52.722Z,12.90
2018-06-03T00:22:23.776Z,13.00
2018-06-03T00:24:51.845Z,13.10
2018-06-03T00:27:20.183Z,13.10
2018-06-03T00:29:49.842Z,13.10
2018-06-03T00:32:18.597Z,13.00
2018-06-03T00:34:46.926Z,12.90
2018-06-03T00:37:16.696Z,12.90
2018-06-03T00:39:45.012Z,12.80
2018-06-03T00:42:13.357Z,12.80
2018-06-03T00:44:42.407Z,12.90
2018-06-03T00:47:10.763Z,12.90
2018-06-03T00:49:39.853Z,12.80
2018-06-03T00:52:09.297Z,12.80
2018-06-03T00:54:37.630Z,12.60
2018-06-03T00:57:10.646Z,12.50
2018-06-03T00:59:39.756Z,12.40
2018-06-03T01:02:08.128Z,12.40
2018-06-03T01:04:37.634Z,12.30
2018-06-03T01:07:05.995Z,12.30
2018-06-03T01:09:35.157Z,12.30
2018-06-03T01:12:04.250Z,12.30
2018-06-03T01:14:32.604Z,12.30
2018-06-03T01:17:00.948Z,12.30
2018-06-03T01:19:30.203Z,12.30
2018-06-03T01:21:58.547Z,12.30
2018-06-03T01:24:26.884Z,12.40
2018-06-03T01:26:56.208Z,12.40
2018-06-03T01:29:24.578Z,12.30
2018-06-03T01:31:53.659Z,12.30
2018-06-03T01:34:23.681Z,12.20
2018-06-03T01:36:52.015Z,12.20
2018-06-03T01:39:20.356Z,12.20
2018-06-03T01:41:49.657Z,12.10
2018-06-03T01:44:18.006Z,12.10
2018-06-03T01:46:46.366Z,12.10
2018-06-03T01:49:16.124Z,12.10
2018-06-03T01:51:44.459Z,12.00
2018-06-03T01:54:13.616Z,11.90
2018-06-03T01:56:43.155Z,11.90
2018-06-03T01:59:11.516Z,12.10
2018-06-03T02:01:39.864Z,12.20
2018-06-03T02:04:09.379Z,12.30
2018-06-03T02:06:38.492Z,12.20
2018-06-03T02:09:06.854Z,12.20
2018-06-03T02:11:35.630Z,12.20
2018-06-03T02:14:03.968Z,12.20
2018-06-03T02:16:32.326Z,12.10
2018-06-03T02:19:01.476Z,12.10
2018-06-03T02:21:29.836Z,12.10
2018-06-03T02:23:58.180Z,12.00
2018-06-03T02:26:27.431Z,12.00
2018-06-03T02:28:55.773Z,11.90
2018-06-03T02:31:24.847Z,11.80
2018-06-03T02:33:54.682Z,11.70
2018-06-03T02:36:23.881Z,11.70
2018-06-03T02:38:52.966Z,11.60
2018-06-03T02:41:22.532Z,11.50
2018-06-03T02:43:50.877Z,11.50
2018-06-03T02:46:19.266Z,11.50
2018-06-03T02:48:49.141Z,11.40
2018-06-03T02:51:17.649Z,11.40
2018-06-03T02:53:46.777Z,11.40
2018-06-03T02:56:15.637Z,11.40
2018-06-03T02:58:43.993Z,11.40
2018-06-03T03:01:14.618Z,11.50
2018-06-03T03:03:43.601Z,11.40
2018-06-03T03:06:11.939Z,11.40
2018-06-03T03:08:41.059Z,11.30
2018-06-03T03:11:10.772Z,11.30
2018-06-03T03:13:40.593Z,11.30
2018-06-03T03:16:09.675Z,11.30
2018-06-03T03:18:38.535Z,11.30
2018-06-03T03:21:06.887Z,11.30
2018-06-03T03:23:35.227Z,11.40
2018-06-03T03:26:04.040Z,11.40
2018-06-03T03:28:32.403Z,11.40
2018-06-03T03:31:00.782Z,11.50
2018-06-03T03:33:30.310Z,11.60
2018-06-03T03:35:59.413Z,11.50
2018-06-03T03:38:28.519Z,11.50
2018-06-03T03:40:57.511Z,11.50
2018-06-03T03:43:26.623Z,11.40
2018-06-03T03:45:54.953Z,11.40
2018-06-03T03:48:23.934Z,11.40
2018-06-03T03:50:52.271Z,11.40
2018-06-03T03:53:21.356Z,11.40
2018-06-03T03:55:49.691Z,11.40
2018-06-03T03:58:19.048Z,11.50
2018-06-03T04:00:47.443Z,11.60
2018-06-03T04:03:15.803Z,12.00
2018-06-03T04:05:44.894Z,12.60
2018-06-03T04:08:13.219Z,13.20
2018-06-03T04:10:42.296Z,14.40
2018-06-03T04:13:11.016Z,14.40
2018-06-03T04:15:39.349Z,15.00
2018-06-03T04:18:07.674Z,15.60
2018-06-03T04:20:37.741Z,16.50
2018-06-03T04:23:06.856Z,16.80
2018-06-03T04:25:35.176Z,16.80
2018-06-03T04:28:05.308Z,16.80
2018-06-03T04:30:34.416Z,16.20
2018-06-03T04:33:02.727Z,16.20
2018-06-03T04:35:31.471Z,15.70
2018-06-03T04:38:00.546Z,15.20
2018-06-03T04:40:29.764Z,15.20
2018-06-03T04:42:58.945Z,14.90
2018-06-03T04:45:27.257Z,14.80
2018-06-03T04:47:56.377Z,14.60
2018-06-03T04:50:26.317Z,14.60
2018-06-03T04:52:54.628Z,14.50
2018-06-03T04:55:22.949Z,14.60
2018-06-03T04:57:52.359Z,14.80
2018-06-03T05:00:20.688Z,14.70
2018-06-03T05:02:50.543Z,14.70
2018-06-03T05:05:20.001Z,14.60
2018-06-03T05:07:48.312Z,14.60
2018-06-03T05:10:16.634Z,14.60
2018-06-03T05:12:45.376Z,14.80
2018-06-03T05:15:13.716Z,14.90
2018-06-03T05:17:42.015Z,15.00
2018-06-03T05:20:11.418Z,15.20
2018-06-03T05:22:39.774Z,15.40
2018-06-03T05:25:08.878Z,17.80
2018-06-03T05:27:37.183Z,17.70
2018-06-03T05:30:06.463Z,19.30
2018-06-03T05:32:34.776Z,20.80
2018-06-03T05:35:03.139Z,22.50
2018-06-03T05:37:32.168Z,23.90
2018-06-03T05:40:01.273Z,25.30
2018-06-03T05:42:31.024Z,25.20
2018-06-03T05:44:59.706Z,26.20
2018-06-03T05:47:28.019Z,26.80
2018-06-03T05:49:56.341Z,27.40
2018-06-03T05:52:25.782Z,28.00
2018-06-03T05:54:54.861Z,28.10
2018-06-03T05:57:23.168Z,28.10
2018-06-03T05:59:53.296Z,27.90
2018-06-03T06:02:22.387Z,28.30
2018-06-03T06:04:51.745Z,28.10
2018-06-03T06:07:20.501Z,28.00
2018-06-03T06:09:48.828Z,27.80
2018-06-03T06:12:17.124Z,27.70
2018-06-03T06:14:45.962Z,28.20
2018-06-03T06:17:14.302Z,28.50
2018-06-03T06:19:42.620Z,28.80
2018-06-03T06:22:12.378Z,28.60
2018-06-03T06:24:40.705Z,28.50
2018-06-03T06:27:09.004Z,28.40
2018-06-03T06:29:37.515Z,28.80
2018-06-03T06:32:05.837Z,29.30
2018-06-03T06:34:35.008Z,29.50
2018-06-03T06:37:03.384Z,29.50
2018-06-03T06:39:32.653Z,29.30
2018-06-03T06:42:01.796Z,29.30
2018-06-03T06:44:30.878Z,29.30
2018-06-03T06:47:00.023Z,29.90
2018-06-03T06:49:28.352Z,30.40
2018-06-03T06:51:56.664Z,30.20
2018-06-03T06:54:25.710Z,29.30
2018-06-03T06:56:54.792Z,28.30
2018-06-03T06:59:23.107Z,28.30
2018-06-03T07:01:52.113Z,28.00
2018-06-03T07:04:20.427Z,27.70
2018-06-03T07:06:48.755Z,27.90
2018-06-03T07:09:19.004Z,28.00
2018-06-03T07:11:47.990Z,28.50
2018-06-03T07:14:17.337Z,28.50
2018-06-03T07:16:47.794Z,28.90
2018-06-03T07:19:16.392Z,28.80
2018-06-03T07:21:45.423Z,28.40
2018-06-03T07:24:15.404Z,27.80
2018-06-03T07:26:44.530Z,27.70
2018-06-03T07:29:13.024Z,28.00
2018-06-03T07:31:42.090Z,28.20
2018-06-03T07:34:10.471Z,28.40
2018-06-03T07:36:39.596Z,29.60
2018-06-03T07:39:09.173Z,29.50
2018-06-03T07:41:39.438Z,28.90
2018-06-03T07:44:09.524Z,28.50
2018-06-03T07:46:41.477Z,28.50
2018-06-03T07:49:10.290Z,28.90
2018-06-03T07:51:40.110Z,28.90
2018-06-03T07:54:16.314Z,29.00
2018-06-03T07:56:47.168Z,28.90
2018-06-03T07:59:15.868Z,28.90
2018-06-03T08:01:44.970Z,28.50
2018-06-03T08:04:13.320Z,28.50
2018-06-03T08:06:41.632Z,28.70
2018-06-03T08:09:10.892Z,28.40
2018-06-03T08:11:39.745Z,28.60
2018-06-03T08:14:09.924Z,29.20
2018-06-03T08:16:39.042Z,29.20
2018-06-03T08:19:07.432Z,29.20
2018-06-03T08:21:36.257Z,29.00
2018-06-03T08:24:05.619Z,29.20
2018-06-03T08:26:33.961Z,29.10
2018-06-03T08:29:02.424Z,29.10
2018-06-03T08:31:32.193Z,29.10
2018-06-03T08:34:00.570Z,29.10
2018-06-03T08:36:28.897Z,29.00
2018-06-03T08:38:57.984Z,29.40
2018-06-03T08:41:26.315Z,29.70
2018-06-03T08:43:54.626Z,29.40
2018-06-03T08:46:23.330Z,29.90
2018-06-03T08:48:52.992Z,29.60
2018-06-03T08:51:21.434Z,29.20
2018-06-03T08:53:50.614Z,29.30
2018-06-03T08:56:20.247Z,29.30
2018-06-03T08:58:53.574Z,29.30
2018-06-03T09:01:24.470Z,29.50
2018-06-03T09:03:54.729Z,29.50
2018-06-03T09:06:23.548Z,29.80
2018-06-03T09:08:55.781Z,30.60
2018-06-03T09:11:26.263Z,30.40
2018-06-03T09:13:57.226Z,30.40
2018-06-03T09:16:26.312Z,30.50
2018-06-03T09:18:57.725Z,29.20
2018-06-03T09:21:26.692Z,29.20
2018-06-03T09:23:57.169Z,28.90
2018-06-03T09:26:27.941Z,29.00
2018-06-03T09:28:57.448Z,29.20
2018-06-03T09:31:27.461Z,28.90
2018-06-03T09:33:57.531Z,29.20
2018-06-03T09:36:26.792Z,30.10
2018-06-03T09:38:56.451Z,30.50
2018-06-03T09:41:25.747Z,30.40
2018-06-03T09:43:55.698Z,30.00
2018-06-03T09:46:24.495Z,29.90
2018-06-03T09:48:56.372Z,30.40
2018-06-03T09:51:25.636Z,30.10
2018-06-03T09:53:54.437Z,30.10
2018-06-03T09:56:25.117Z,29.10
2018-06-03T09:58:53.852Z,29.00
2018-06-03T10:01:22.947Z,27.70
2018-06-03T10:03:51.804Z,27.10
2018-06-03T10:06:20.664Z,27.20
2018-06-03T10:08:49.434Z,27.70
2018-06-03T10:11:19.925Z,28.80
2018-06-03T10:13:49.897Z,30.30
2018-06-03T10:16:18.965Z,30.30
2018-06-03T10:18:49.763Z,29.60
2018-06-03T10:21:18.902Z,29.00
2018-06-03T10:23:49.880Z,28.60
2018-06-03T10:26:18.565Z,28.60
2018-06-03T10:28:51.720Z,29.30
2018-06-03T10:31:21.429Z,28.70
2018-06-03T10:33:51.623Z,28.40
2018-06-03T10:36:23.424Z,29.30
2018-06-03T10:38:59.547Z,30.00
2018-06-03T10:41:33.540Z,29.40
2018-06-03T10:44:03.189Z,29.40
2018-06-03T10:46:33.176Z,30.10
2018-06-03T10:49:04.746Z,29.80
2018-06-03T10:51:33.899Z,28.90
2018-06-03T10:54:02.534Z,28.40
2018-06-03T10:56:33.420Z,29.60
2018-06-03T10:59:03.430Z,29.60
2018-06-03T11:01:34.605Z,30.00
2018-06-03T11:04:03.845Z,29.40
2018-06-03T11:06:34.201Z,27.70
2018-06-03T11:09:03.231Z,27.60
2018-06-03T11:11:33.315Z,27.90
2018-06-03T11:14:03.494Z,29.30
2018-06-03T11:16:37.035Z,30.80
2018-06-03T11:19:07.599Z,31.70
2018-06-03T11:21:41.060Z,32.10
2018-06-03T11:24:11.816Z,30.90
2018-06-03T11:26:51.246Z,30.80
2018-06-03T11:29:23.549Z,30.50
2018-06-03T11:31:57.432Z,31.60
2018-06-03T11:34:27.687Z,32.40
2018-06-03T11:36:56.819Z,32.80
2018-06-03T11:40:27.276Z,32.70
2018-06-03T11:43:02.457Z,32.60
2018-06-03T11:45:34.856Z,32.00
2018-06-03T11:48:09.794Z,32.30
2018-06-03T11:50:47.529Z,32.60
2018-06-03T11:53:20.182Z,33.20
2018-06-03T11:58:44.516Z,33.10
2018-06-03T12:01:20.459Z,31.90
2018-06-03T12:03:50.821Z,30.70
2018-06-03T12:06:24.935Z,29.60
2018-06-03T12:11:44.768Z,29.70
2018-06-03T12:14:18.833Z,30.10
2018-06-03T12:16:53.970Z,30.50
2018-06-03T12:19:29.733Z,30.60
2018-06-03T12:22:07.968Z,30.30
2018-06-03T12:24:55.224Z,30.70
2018-06-03T12:27:33.768Z,31.40
2018-06-03T12:30:10.961Z,31.80
2018-06-03T12:35:35.902Z,31.80
2018-06-03T12:38:15.956Z,31.70
2018-06-03T12:40:48.456Z,32.30
2018-06-03T12:43:23.064Z,33.00
2018-06-03T12:45:58.579Z,33.00
2018-06-03T12:48:46.053Z,32.80
2018-06-03T12:51:20.172Z,33.00
2018-06-03T12:53:51.892Z,32.50
2018-06-03T12:56:27.660Z,32.40
2018-06-03T12:59:03.575Z,32.80
2018-06-03T13:01:37.294Z,32.70
2018-06-03T13:04:10.248Z,32.80
2018-06-03T13:06:41.488Z,32.60
2018-06-03T13:09:16.741Z,32.50
2018-06-03T13:11:52.846Z,32.30
2018-06-03T13:14:29.936Z,32.10
2018-06-03T13:17:02.464Z,32.50
2018-06-03T13:19:41.765Z,33.10
2018-06-03T13:22:17.857Z,33.60
2018-06-03T13:24:53.556Z,33.20
2018-06-03T13:27:27.053Z,32.20
2018-06-03T13:30:05.280Z,31.20
2018-06-03T13:32:42.638Z,31.20
2018-06-03T13:35:24.649Z,31.90
2018-06-03T13:38:01.877Z,32.30
2018-06-03T13:40:36.955Z,32.50
2018-06-03T13:43:09.840Z,33.00
2018-06-03T13:45:43.754Z,33.40
2018-06-03T13:48:14.725Z,33.80
2018-06-03T13:50:45.527Z,33.90
2018-06-03T13:53:19.052Z,33.90
2018-06-03T13:56:05.811Z,34.40
2018-06-03T13:58:37.592Z,32.90
2018-06-03T14:01:11.044Z,31.30
2018-06-03T14:03:42.496Z,30.60
2018-06-03T14:06:16.707Z,30.00
2018-06-03T14:08:47.345Z,29.70
2018-06-03T14:11:20.935Z,30.20
2018-06-03T14:13:53.176Z,30.80
2018-06-03T14:16:30.515Z,30.80
2018-06-03T14:19:02.165Z,30.60
2018-06-03T14:21:34.946Z,30.60
2018-06-03T14:24:14.556Z,31.10
2018-06-03T14:26:48.068Z,31.40
2018-06-03T14:29:18.789Z,31.90
2018-06-03T14:31:54.190Z,32.60
2018-06-03T14:34:24.267Z,33.10
2018-06-03T14:36:54.606Z,33.80
2018-06-03T14:39:26.574Z,34.40
2018-06-03T14:41:59.099Z,34.60
2018-06-03T14:44:30.421Z,34.70
2018-06-03T14:47:04.350Z,34.20
2018-06-03T14:49:34.796Z,33.70
2018-06-03T14:52:06.110Z,32.50
2018-06-03T14:54:38.475Z,31.80
2018-06-03T14:57:09.811Z,31.40
2018-06-03T14:59:40.222Z,30.30
2018-06-03T15:02:11.870Z,30.10
2018-06-03T15:04:42.896Z,30.50
2018-06-03T15:07:16.210Z,31.00
2018-06-03T15:09:48.386Z,31.70
2018-06-03T15:12:20.073Z,32.10
2018-06-03T15:14:51.068Z,31.70
2018-06-03T15:17:23.688Z,31.70
2018-06-03T15:19:53.961Z,31.20
2018-06-03T15:22:25.627Z,30.60
2018-06-03T15:25:02.291Z,30.20
2018-06-03T15:27:33.526Z,29.50
2018-06-03T15:30:06.422Z,29.10
2018-06-03T15:32:38.829Z,28.60
2018-06-03T15:35:09.546Z,28.10
2018-06-03T15:37:42.145Z,27.60
2018-06-03T15:40:14.736Z,27.40
2018-06-03T15:42:46.982Z,27.50
2018-06-03T15:45:18.269Z,27.40
2018-06-03T15:47:50.751Z,27.40
2018-06-03T15:50:21.714Z,27.30
2018-06-03T15:52:53.227Z,27.50
2018-06-03T15:55:26.302Z,28.00
2018-06-03T15:57:58.830Z,28.80
2018-06-03T16:00:29.586Z,29.50
2018-06-03T16:03:01.564Z,29.50
2018-06-03T16:05:33.105Z,29.60
2018-06-03T16:08:04.923Z,30.40
2018-06-03T16:10:36.694Z,31.00
2018-06-03T16:13:09.583Z,30.90
2018-06-03T16:15:43.183Z,30.70
2018-06-03T16:18:15.147Z,30.70
2018-06-03T16:20:46.846Z,30.50
2018-06-03T16:23:19.201Z,30.20
2018-06-03T16:25:51.626Z,29.70
2018-06-03T16:28:23.448Z,29.00
2018-06-03T16:30:55.256Z,28.40
2018-06-03T16:33:27.732Z,28.00
2018-06-03T16:35:58.449Z,27.60
2018-06-03T16:38:28.821Z,27.10
2018-06-03T16:41:02.285Z,26.90
2018-06-03T16:43:33.439Z,26.60
2018-06-03T16:46:05.033Z,26.30
2018-06-03T16:48:36.559Z,26.00
2018-06-03T16:51:09.584Z,25.70
2018-06-03T16:53:39.358Z,25.40
2018-06-03T16:56:14.020Z,25.30
2018-06-03T16:58:44.569Z,25.20
2018-06-03T17:01:17.102Z,25.10
2018-06-03T17:03:47.836Z,25.00
2018-06-03T17:06:22.802Z,25.00
2018-06-03T17:08:52.528Z,24.80
2018-06-03T17:11:23.297Z,24.80
2018-06-03T17:13:56.910Z,24.70
2018-06-03T17:16:29.127Z,24.60
2018-06-03T17:19:00.134Z,24.50
2018-06-03T17:21:30.771Z,24.50
2018-06-03T17:24:01.205Z,24.40
2018-06-03T17:26:31.878Z,24.30
2018-06-03T17:29:01.638Z,24.30
2018-06-03T17:31:31.898Z,24.20
2018-06-03T17:34:01.453Z,24.10
2018-06-03T17:36:31.948Z,24.00
2018-06-03T17:39:01.440Z,24.00
2018-06-03T17:41:30.937Z,23.90
2018-06-03T17:44:00.421Z,23.80
2018-06-03T17:46:30.317Z,23.70
2018-06-03T17:48:59.834Z,23.70
2018-06-03T17:51:29.403Z,23.70
2018-06-03T17:53:59.922Z,23.50
2018-06-03T17:56:30.674Z,23.40
2018-06-03T17:59:00.763Z,23.30
2018-06-03T18:01:30.270Z,23.30
2018-06-03T18:03:59.734Z,23.30
2018-06-03T18:06:30.555Z,23.20
2018-06-03T18:09:00.069Z,23.10
2018-06-03T18:11:29.711Z,23.10
2018-06-03T18:13:59.906Z,23.00
2018-06-03T18:16:29.604Z,22.90
2018-06-03T18:19:00.296Z,22.80
2018-06-03T18:21:31.255Z,22.70
2018-06-03T18:24:01.676Z,22.70
2018-06-03T18:26:31.241Z,22.50
2018-06-03T18:29:02.250Z,22.40
2018-06-03T18:31:33.703Z,22.40
2018-06-03T18:34:04.191Z,22.30
2018-06-03T18:36:33.880Z,22.20
2018-06-03T18:39:05.164Z,22.10
2018-06-03T18:41:34.811Z,22.00
2018-06-03T18:44:05.656Z,21.90
2018-06-03T18:46:35.626Z,21.80
2018-06-03T18:49:06.293Z,21.70
2018-06-03T18:51:36.075Z,21.60
2018-06-03T18:54:07.150Z,21.40
2018-06-03T18:56:37.716Z,21.30
2018-06-03T18:59:09.782Z,21.30
2018-06-03T19:01:40.088Z,21.20
2018-06-03T19:04:19.972Z,21.00
2018-06-03T19:09:22.187Z,20.80
2018-06-03T19:11:52.030Z,20.70
2018-06-03T19:14:22.789Z,20.60
2018-06-03T19:16:53.228Z,20.50
2018-06-03T19:19:23.639Z,20.40
2018-06-03T19:21:53.766Z,20.40
2018-06-03T19:24:24.545Z,20.30
2018-06-03T19:26:54.782Z,20.20
2018-06-03T19:29:25.490Z,20.10
2018-06-03T19:31:55.135Z,20.00
2018-06-03T19:34:26.339Z,19.90
2018-06-03T19:36:58.170Z,19.80
2018-06-03T19:39:27.815Z,19.70
2018-06-03T19:41:58.630Z,19.70
2018-06-03T19:44:29.110Z,19.60
2018-06-03T19:46:59.709Z,19.50
2018-06-03T19:49:31.016Z,19.30
2018-06-03T19:52:02.117Z,19.30
2018-06-03T19:54:31.622Z,19.20
2018-06-03T19:57:02.533Z,19.20
2018-06-03T19:59:32.636Z,19.20
2018-06-03T20:02:03.781Z,19.10
2018-06-03T20:04:35.177Z,19.00
2018-06-03T20:07:05.759Z,18.90
2018-06-03T20:09:35.707Z,18.70
2018-06-03T20:12:06.608Z,18.60
2018-06-03T20:14:37.189Z,18.40
2018-06-03T20:17:08.003Z,18.20
2018-06-03T20:19:37.574Z,18.20
2018-06-03T20:22:07.673Z,18.20
2018-06-03T20:24:37.818Z,18.20
2018-06-03T20:27:09.468Z,18.10
2018-06-03T20:29:41.019Z,17.90
2018-06-03T20:32:11.349Z,17.80
2018-06-03T20:34:40.927Z,17.60
2018-06-03T20:37:10.718Z,17.40
2018-06-03T20:39:40.708Z,17.20
2018-06-03T20:42:10.213Z,17.00
2018-06-03T20:47:09.638Z,16.70
2018-06-03T20:49:39.146Z,16.60
2018-06-03T20:52:08.657Z,16.60
2018-06-03T20:54:38.960Z,16.70
2018-06-03T20:57:09.337Z,16.70
2018-06-03T20:59:38.844Z,16.70
2018-06-03T21:02:08.727Z,16.70
2018-06-03T21:04:38.299Z,16.70
2018-06-03T21:07:07.779Z,16.70
2018-06-03T21:09:38.029Z,16.70
2018-06-03T21:12:07.570Z,16.60
2018-06-03T21:14:37.963Z,16.50
2018-06-03T21:17:07.482Z,16.40
2018-06-03T21:19:36.998Z,16.30
2018-06-03T21:22:07.204Z,16.30
2018-06-03T21:24:36.671Z,16.40
2018-06-03T21:27:09.701Z,16.40
2018-06-03T21:29:39.823Z,16.20
2018-06-03T21:32:09.565Z,15.90
2018-06-03T21:34:40.817Z,15.80
2018-06-03T21:37:10.336Z,15.60
2018-06-03T21:39:39.881Z,15.50
2018-06-03T21:42:10.019Z,15.40
2018-06-03T21:44:39.560Z,15.40
2018-06-03T21:47:09.151Z,15.50
2018-06-03T21:49:39.915Z,15.30
2018-06-03T21:52:09.451Z,15.40
2018-06-03T21:54:38.886Z,15.30
2018-06-03T21:57:09.269Z,15.20
2018-06-03T21:59:39.763Z,15.20
2018-06-03T22:02:09.893Z,15.10
2018-06-03T22:04:39.391Z,14.90
2018-06-03T22:07:09.934Z,14.80
2018-06-03T22:09:39.546Z,14.70
2018-06-03T22:12:09.099Z,14.70
2018-06-03T22:14:39.308Z,14.70
2018-06-03T22:17:08.808Z,14.80
2018-06-03T22:19:38.441Z,14.80
2018-06-03T22:22:08.698Z,14.80
2018-06-03T22:24:38.198Z,14.80
2018-06-03T22:27:07.747Z,14.60
2018-06-03T22:29:37.793Z,14.50
2018-06-03T22:32:07.334Z,14.40
2018-06-03T22:34:37.879Z,14.40
2018-06-03T22:37:07.369Z,14.30
2018-06-03T22:39:37.499Z,14.20
2018-06-03T22:42:07.057Z,14.20
2018-06-03T22:44:36.588Z,14.20
2018-06-03T22:47:07.598Z,14.10
2018-06-03T22:49:37.322Z,14.00
2018-06-03T22:52:06.907Z,14.10
2018-06-03T22:54:37.052Z,14.10
2018-06-03T22:57:49.328Z,14.00
2018-06-03T23:00:56.468Z,14.00
2018-06-03T23:03:26.062Z,13.80
2018-06-03T23:05:56.287Z,13.80
2018-06-03T23:08:25.801Z,13.70
2018-06-03T23:10:56.632Z,13.60
2018-06-03T23:13:26.239Z,13.60
2018-06-03T23:15:55.814Z,13.60
2018-06-03T23:18:26.699Z,13.60
2018-06-03T23:20:56.215Z,13.50
2018-06-03T23:23:25.809Z,13.50
2018-06-03T23:25:56.155Z,13.60
2018-06-03T23:28:25.707Z,13.60
2018-06-03T23:30:55.229Z,13.50
2018-06-03T23:33:28.579Z,13.50
2018-06-03T23:35:58.176Z,13.50
2018-06-03T23:38:28.433Z,13.30
2018-06-03T23:40:58.021Z,13.20
2018-06-03T23:45:58.529Z,13.30
2018-06-03T23:48:28.258Z,13.40
2018-06-03T23:50:58.418Z,13.40
2018-06-03T23:53:27.968Z,13.40
2018-06-03T23:55:58.930Z,13.30
2018-06-03T23:58:29.327Z,13.20
